sensor_id;sensor_type;location;lat;lon;timestamp;temperature;humidity
23827;DHT22;12094;50.822;4.376;2022-12-07T00:01:33;5.70;99.90
23827;DHT22;12094;50.822;4.376;2022-12-07T00:04:04;5.70;99.90
23827;DHT22;12094;50.822;4.376;2022-12-07T00:06:35;5.80;99.90
23827;DHT22;12094;50.822;4.376;2022-12-07T00:09:04;5.90;99.90
23827;DHT22;12094;50.822;4.376;2022-12-07T00:11:32;6.00;99.90
23827;DHT22;12094;50.822;4.376;2022-12-07T00:14:02;6.00;99.90
23827;DHT22;12094;50.822;4.376;2022-12-07T00:16:30;5.90;99.90
23827;DHT22;12094;50.822;4.376;2022-12-07T00:18:58;6.00;99.90
23827;DHT22;12094;50.822;4.376;2022-12-07T00:21:31;6.10;99.90
23827;DHT22;12094;50.822;4.376;2022-12-07T00:24:00;5.90;99.90
23827;DHT22;12094;50.822;4.376;2022-12-07T00:26:29;5.70;99.90
23827;DHT22;12094;50.822;4.376;2022-12-07T00:29:02;5.60;99.90
23827;DHT22;12094;50.822;4.376;2022-12-07T00:31:34;5.50;99.90
23827;DHT22;12094;50.822;4.376;2022-12-07T00:34:02;5.50;99.90
23827;DHT22;12094;50.822;4.376;2022-12-07T00:36:29;5.40;99.90
23827;DHT22;12094;50.822;4.376;2022-12-07T00:38:58;5.30;99.90
23827;DHT22;12094;50.822;4.376;2022-12-07T00:41:27;5.40;99.90
23827;DHT22;12094;50.822;4.376;2022-12-07T00:43:54;5.30;99.90
23827;DHT22;12094;50.822;4.376;2022-12-07T00:46:23;5.30;99.90
23827;DHT22;12094;50.822;4.376;2022-12-07T00:48:51;5.60;99.90
23827;DHT22;12094;50.822;4.376;2022-12-07T00:51:21;5.50;99.90
23827;DHT22;12094;50.822;4.376;2022-12-07T00:53:48;5.40;99.90
23827;DHT22;12094;50.822;4.376;2022-12-07T00:56:20;5.40;99.90
23827;DHT22;12094;50.822;4.376;2022-12-07T00:58:57;5.60;99.90
23827;DHT22;12094;50.822;4.376;2022-12-07T01:01:27;5.50;99.90
23827;DHT22;12094;50.822;4.376;2022-12-07T01:03:55;5.60;99.90
23827;DHT22;12094;50.822;4.376;2022-12-07T01:06:25;5.50;99.90
23827;DHT22;12094;50.822;4.376;2022-12-07T01:08:53;5.40;99.90
23827;DHT22;12094;50.822;4.376;2022-12-07T01:11:23;5.40;99.90
23827;DHT22;12094;50.822;4.376;2022-12-07T01:13:53;5.40;99.90
23827;DHT22;12094;50.822;4.376;2022-12-07T01:16:24;5.40;99.90
23827;DHT22;12094;50.822;4.376;2022-12-07T01:18:53;5.50;99.90
23827;DHT22;12094;50.822;4.376;2022-12-07T01:21:25;5.30;99.90
23827;DHT22;12094;50.822;4.376;2022-12-07T01:23:53;5.30;99.90
23827;DHT22;12094;50.822;4.376;2022-12-07T01:26:23;5.30;99.90
23827;DHT22;12094;50.822;4.376;2022-12-07T01:28:50;5.30;99.90
23827;DHT22;12094;50.822;4.376;2022-12-07T01:31:19;5.20;99.90
23827;DHT22;12094;50.822;4.376;2022-12-07T01:33:50;5.30;99.90
23827;DHT22;12094;50.822;4.376;2022-12-07T01:38:51;5.30;99.90
23827;DHT22;12094;50.822;4.376;2022-12-07T01:41:20;5.50;99.90
23827;DHT22;12094;50.822;4.376;2022-12-07T01:44:14;5.50;99.90
23827;DHT22;12094;50.822;4.376;2022-12-07T01:46:44;5.50;99.90
23827;DHT22;12094;50.822;4.376;2022-12-07T01:49:33;5.50;99.90
23827;DHT22;12094;50.822;4.376;2022-12-07T01:54:44;5.70;99.90
23827;DHT22;12094;50.822;4.376;2022-12-07T01:57:15;5.60;99.90
23827;DHT22;12094;50.822;4.376;2022-12-07T01:59:47;5.50;99.90
23827;DHT22;12094;50.822;4.376;2022-12-07T02:02:25;5.60;99.90
23827;DHT22;12094;50.822;4.376;2022-12-07T02:04:54;5.60;99.90
23827;DHT22;12094;50.822;4.376;2022-12-07T02:07:23;5.70;99.90
23827;DHT22;12094;50.822;4.376;2022-12-07T02:09:50;5.70;99.90
23827;DHT22;12094;50.822;4.376;2022-12-07T02:12:19;5.80;99.90
23827;DHT22;12094;50.822;4.376;2022-12-07T02:14:47;5.70;99.90
23827;DHT22;12094;50.822;4.376;2022-12-07T02:17:25;5.70;99.90
23827;DHT22;12094;50.822;4.376;2022-12-07T02:25:33;5.50;99.90
23827;DHT22;12094;50.822;4.376;2022-12-07T02:28:17;5.40;99.90
23827;DHT22;12094;50.822;4.376;2022-12-07T02:30:48;5.20;99.90
23827;DHT22;12094;50.822;4.376;2022-12-07T02:33:22;5.10;99.90
23827;DHT22;12094;50.822;4.376;2022-12-07T02:36:06;5.10;99.90
23827;DHT22;12094;50.822;4.376;2022-12-07T02:38:55;5.30;99.90
23827;DHT22;12094;50.822;4.376;2022-12-07T02:41:34;5.50;99.90
23827;DHT22;12094;50.822;4.376;2022-12-07T02:44:12;5.70;99.90
23827;DHT22;12094;50.822;4.376;2022-12-07T02:46:43;5.70;99.90
23827;DHT22;12094;50.822;4.376;2022-12-07T02:49:11;5.80;99.90
23827;DHT22;12094;50.822;4.376;2022-12-07T02:51:43;5.70;99.90
23827;DHT22;12094;50.822;4.376;2022-12-07T02:54:19;5.50;99.90
23827;DHT22;12094;50.822;4.376;2022-12-07T02:57:02;5.40;99.90
23827;DHT22;12094;50.822;4.376;2022-12-07T03:18:28;5.50;99.90
23827;DHT22;12094;50.822;4.376;2022-12-07T03:21:00;5.50;99.90
23827;DHT22;12094;50.822;4.376;2022-12-07T03:23:29;5.50;99.90
23827;DHT22;12094;50.822;4.376;2022-12-07T03:26:00;5.50;99.90
23827;DHT22;12094;50.822;4.376;2022-12-07T03:28:33;5.50;99.90
23827;DHT22;12094;50.822;4.376;2022-12-07T03:31:23;5.50;99.90
23827;DHT22;12094;50.822;4.376;2022-12-07T03:33:59;5.60;99.90
23827;DHT22;12094;50.822;4.376;2022-12-07T03:36:42;5.60;99.90
23827;DHT22;12094;50.822;4.376;2022-12-07T03:39:25;5.60;99.90
23827;DHT22;12094;50.822;4.376;2022-12-07T03:41:54;5.60;99.90
23827;DHT22;12094;50.822;4.376;2022-12-07T03:44:22;5.50;99.90
23827;DHT22;12094;50.822;4.376;2022-12-07T03:47:01;5.40;99.90
23827;DHT22;12094;50.822;4.376;2022-12-07T03:52:40;5.30;99.90
23827;DHT22;12094;50.822;4.376;2022-12-07T03:55:28;5.20;99.90
23827;DHT22;12094;50.822;4.376;2022-12-07T03:58:07;5.20;99.90
23827;DHT22;12094;50.822;4.376;2022-12-07T04:00:36;5.20;99.90
23827;DHT22;12094;50.822;4.376;2022-12-07T04:03:04;5.20;99.90
23827;DHT22;12094;50.822;4.376;2022-12-07T04:05:31;5.20;99.90
23827;DHT22;12094;50.822;4.376;2022-12-07T04:07:59;5.20;99.90
23827;DHT22;12094;50.822;4.376;2022-12-07T04:10:26;5.20;99.90
23827;DHT22;12094;50.822;4.376;2022-12-07T04:12:55;5.30;99.90
23827;DHT22;12094;50.822;4.376;2022-12-07T04:15:22;5.30;99.90
23827;DHT22;12094;50.822;4.376;2022-12-07T04:17:49;5.20;99.90
23827;DHT22;12094;50.822;4.376;2022-12-07T04:20:16;5.20;99.90
23827;DHT22;12094;50.822;4.376;2022-12-07T04:22:45;5.20;99.90
23827;DHT22;12094;50.822;4.376;2022-12-07T04:25:12;5.10;99.90
23827;DHT22;12094;50.822;4.376;2022-12-07T04:27:39;5.10;99.90
23827;DHT22;12094;50.822;4.376;2022-12-07T04:30:07;5.10;99.90
23827;DHT22;12094;50.822;4.376;2022-12-07T04:32:34;5.00;99.90
23827;DHT22;12094;50.822;4.376;2022-12-07T04:35:02;4.90;99.90
23827;DHT22;12094;50.822;4.376;2022-12-07T04:37:29;4.90;99.90
23827;DHT22;12094;50.822;4.376;2022-12-07T04:39:56;5.00;99.90
23827;DHT22;12094;50.822;4.376;2022-12-07T04:42:23;5.00;99.90
23827;DHT22;12094;50.822;4.376;2022-12-07T04:44:49;5.10;99.90
23827;DHT22;12094;50.822;4.376;2022-12-07T04:47:17;5.20;99.90
23827;DHT22;12094;50.822;4.376;2022-12-07T04:49:48;5.20;99.90
23827;DHT22;12094;50.822;4.376;2022-12-07T04:52:15;5.20;99.90
23827;DHT22;12094;50.822;4.376;2022-12-07T04:54:42;5.30;99.90
23827;DHT22;12094;50.822;4.376;2022-12-07T04:57:09;5.30;99.90
23827;DHT22;12094;50.822;4.376;2022-12-07T04:59:36;5.30;99.90
23827;DHT22;12094;50.822;4.376;2022-12-07T05:02:12;5.40;99.90
23827;DHT22;12094;50.822;4.376;2022-12-07T05:04:41;5.30;99.90
23827;DHT22;12094;50.822;4.376;2022-12-07T05:07:10;5.20;99.90
23827;DHT22;12094;50.822;4.376;2022-12-07T05:09:38;5.10;99.90
23827;DHT22;12094;50.822;4.376;2022-12-07T05:12:07;5.10;99.90
23827;DHT22;12094;50.822;4.376;2022-12-07T05:14:35;5.20;99.90
23827;DHT22;12094;50.822;4.376;2022-12-07T05:17:02;5.20;99.90
23827;DHT22;12094;50.822;4.376;2022-12-07T05:19:29;5.20;99.90
23827;DHT22;12094;50.822;4.376;2022-12-07T05:21:57;5.20;99.90
23827;DHT22;12094;50.822;4.376;2022-12-07T05:24:28;5.30;99.90
23827;DHT22;12094;50.822;4.376;2022-12-07T05:26:55;5.30;99.90
23827;DHT22;12094;50.822;4.376;2022-12-07T05:29:21;5.30;99.90
23827;DHT22;12094;50.822;4.376;2022-12-07T05:31:49;5.30;99.90
23827;DHT22;12094;50.822;4.376;2022-12-07T05:34:16;5.40;99.90
23827;DHT22;12094;50.822;4.376;2022-12-07T05:36:43;5.40;99.90
23827;DHT22;12094;50.822;4.376;2022-12-07T05:39:10;5.50;99.90
23827;DHT22;12094;50.822;4.376;2022-12-07T05:41:37;5.40;99.90
23827;DHT22;12094;50.822;4.376;2022-12-07T05:44:41;5.50;99.90
23827;DHT22;12094;50.822;4.376;2022-12-07T05:47:08;5.50;99.90
23827;DHT22;12094;50.822;4.376;2022-12-07T05:49:37;5.60;99.90
23827;DHT22;12094;50.822;4.376;2022-12-07T05:52:05;5.50;99.90
23827;DHT22;12094;50.822;4.376;2022-12-07T05:54:36;5.60;99.90
23827;DHT22;12094;50.822;4.376;2022-12-07T05:57:04;5.50;99.90
23827;DHT22;12094;50.822;4.376;2022-12-07T05:59:31;5.50;99.90
23827;DHT22;12094;50.822;4.376;2022-12-07T06:04:29;5.60;99.90
23827;DHT22;12094;50.822;4.376;2022-12-07T06:06:57;5.60;99.90
23827;DHT22;12094;50.822;4.376;2022-12-07T06:09:26;5.60;99.90
23827;DHT22;12094;50.822;4.376;2022-12-07T06:11:55;5.50;99.90
23827;DHT22;12094;50.822;4.376;2022-12-07T06:14:41;5.50;99.90
23827;DHT22;12094;50.822;4.376;2022-12-07T06:17:09;5.50;99.90
23827;DHT22;12094;50.822;4.376;2022-12-07T06:19:38;5.50;99.90
23827;DHT22;12094;50.822;4.376;2022-12-07T06:22:05;5.50;99.90
23827;DHT22;12094;50.822;4.376;2022-12-07T06:24:33;5.40;99.90
23827;DHT22;12094;50.822;4.376;2022-12-07T06:27:00;5.30;99.90
23827;DHT22;12094;50.822;4.376;2022-12-07T06:29:28;5.30;99.90
23827;DHT22;12094;50.822;4.376;2022-12-07T06:31:55;5.20;99.90
23827;DHT22;12094;50.822;4.376;2022-12-07T06:34:22;5.10;99.90
23827;DHT22;12094;50.822;4.376;2022-12-07T06:36:51;5.00;99.90
23827;DHT22;12094;50.822;4.376;2022-12-07T06:39:23;5.00;99.90
23827;DHT22;12094;50.822;4.376;2022-12-07T06:41:51;5.00;99.90
23827;DHT22;12094;50.822;4.376;2022-12-07T06:44:24;5.00;99.90
23827;DHT22;12094;50.822;4.376;2022-12-07T06:46:51;5.00;99.90
23827;DHT22;12094;50.822;4.376;2022-12-07T06:49:38;5.00;99.90
23827;DHT22;12094;50.822;4.376;2022-12-07T06:52:05;5.20;99.90
23827;DHT22;12094;50.822;4.376;2022-12-07T06:54:32;5.40;99.90
23827;DHT22;12094;50.822;4.376;2022-12-07T06:56:59;5.40;99.90
23827;DHT22;12094;50.822;4.376;2022-12-07T06:59:26;5.40;99.90
23827;DHT22;12094;50.822;4.376;2022-12-07T07:01:53;5.30;99.90
23827;DHT22;12094;50.822;4.376;2022-12-07T07:04:19;5.30;99.90
23827;DHT22;12094;50.822;4.376;2022-12-07T07:06:46;5.20;99.90
23827;DHT22;12094;50.822;4.376;2022-12-07T07:09:13;5.30;99.90
23827;DHT22;12094;50.822;4.376;2022-12-07T07:11:40;5.40;99.90
23827;DHT22;12094;50.822;4.376;2022-12-07T07:14:07;5.50;99.90
23827;DHT22;12094;50.822;4.376;2022-12-07T07:16:36;5.50;99.90
23827;DHT22;12094;50.822;4.376;2022-12-07T07:19:04;5.60;99.90
23827;DHT22;12094;50.822;4.376;2022-12-07T07:21:31;5.60;99.90
23827;DHT22;12094;50.822;4.376;2022-12-07T07:23:58;5.60;99.90
23827;DHT22;12094;50.822;4.376;2022-12-07T07:26:25;5.60;99.90
23827;DHT22;12094;50.822;4.376;2022-12-07T07:28:53;5.50;99.90
23827;DHT22;12094;50.822;4.376;2022-12-07T07:31:23;5.50;99.90
23827;DHT22;12094;50.822;4.376;2022-12-07T07:33:50;5.50;99.90
23827;DHT22;12094;50.822;4.376;2022-12-07T07:36:18;5.40;99.90
23827;DHT22;12094;50.822;4.376;2022-12-07T07:38:45;5.40;99.90
23827;DHT22;12094;50.822;4.376;2022-12-07T07:41:13;5.30;99.90
23827;DHT22;12094;50.822;4.376;2022-12-07T07:43:41;5.30;99.90
23827;DHT22;12094;50.822;4.376;2022-12-07T07:46:10;5.40;99.90
23827;DHT22;12094;50.822;4.376;2022-12-07T07:48:39;5.40;99.90
23827;DHT22;12094;50.822;4.376;2022-12-07T07:51:07;5.40;99.90
23827;DHT22;12094;50.822;4.376;2022-12-07T07:53:35;5.50;99.90
23827;DHT22;12094;50.822;4.376;2022-12-07T07:56:03;5.60;99.90
23827;DHT22;12094;50.822;4.376;2022-12-07T07:58:30;5.70;99.90
23827;DHT22;12094;50.822;4.376;2022-12-07T08:00:57;5.60;99.90
23827;DHT22;12094;50.822;4.376;2022-12-07T08:03:31;5.50;99.90
23827;DHT22;12094;50.822;4.376;2022-12-07T08:05:58;5.50;99.90
23827;DHT22;12094;50.822;4.376;2022-12-07T08:08:26;5.50;99.90
23827;DHT22;12094;50.822;4.376;2022-12-07T08:10:53;5.40;99.90
23827;DHT22;12094;50.822;4.376;2022-12-07T08:13:22;5.40;99.90
23827;DHT22;12094;50.822;4.376;2022-12-07T08:15:56;5.30;99.90
23827;DHT22;12094;50.822;4.376;2022-12-07T08:18:27;5.20;99.90
23827;DHT22;12094;50.822;4.376;2022-12-07T08:21:01;5.10;99.90
23827;DHT22;12094;50.822;4.376;2022-12-07T08:23:31;5.10;99.90
23827;DHT22;12094;50.822;4.376;2022-12-07T08:26:12;5.10;99.90
23827;DHT22;12094;50.822;4.376;2022-12-07T08:28:39;5.10;99.90
23827;DHT22;12094;50.822;4.376;2022-12-07T08:31:10;5.10;99.90
23827;DHT22;12094;50.822;4.376;2022-12-07T08:34:03;5.20;99.90
23827;DHT22;12094;50.822;4.376;2022-12-07T08:36:32;5.20;99.90
23827;DHT22;12094;50.822;4.376;2022-12-07T08:38:59;5.20;99.90
23827;DHT22;12094;50.822;4.376;2022-12-07T08:41:47;5.10;99.90
23827;DHT22;12094;50.822;4.376;2022-12-07T08:44:17;5.10;99.90
23827;DHT22;12094;50.822;4.376;2022-12-07T08:46:49;5.00;99.90
23827;DHT22;12094;50.822;4.376;2022-12-07T08:49:22;5.10;99.90
23827;DHT22;12094;50.822;4.376;2022-12-07T08:51:50;5.20;99.90
23827;DHT22;12094;50.822;4.376;2022-12-07T08:54:19;5.40;99.90
23827;DHT22;12094;50.822;4.376;2022-12-07T08:56:47;5.60;99.90
23827;DHT22;12094;50.822;4.376;2022-12-07T08:59:21;5.60;99.90
23827;DHT22;12094;50.822;4.376;2022-12-07T09:01:48;5.60;99.90
23827;DHT22;12094;50.822;4.376;2022-12-07T09:04:15;5.80;99.90
23827;DHT22;12094;50.822;4.376;2022-12-07T09:06:43;5.80;99.90
23827;DHT22;12094;50.822;4.376;2022-12-07T09:09:11;5.90;99.90
23827;DHT22;12094;50.822;4.376;2022-12-07T09:11:40;5.90;99.90
23827;DHT22;12094;50.822;4.376;2022-12-07T09:14:08;5.90;99.90
23827;DHT22;12094;50.822;4.376;2022-12-07T09:16:36;6.00;99.90
23827;DHT22;12094;50.822;4.376;2022-12-07T09:19:04;5.90;99.90
23827;DHT22;12094;50.822;4.376;2022-12-07T09:21:31;5.90;99.90
23827;DHT22;12094;50.822;4.376;2022-12-07T09:23:58;5.90;99.90
23827;DHT22;12094;50.822;4.376;2022-12-07T09:26:25;6.00;99.90
23827;DHT22;12094;50.822;4.376;2022-12-07T09:28:52;6.10;99.90
23827;DHT22;12094;50.822;4.376;2022-12-07T09:31:19;6.10;99.90
23827;DHT22;12094;50.822;4.376;2022-12-07T09:34:08;6.30;99.90
23827;DHT22;12094;50.822;4.376;2022-12-07T09:36:35;6.20;99.90
23827;DHT22;12094;50.822;4.376;2022-12-07T09:39:02;6.10;99.90
23827;DHT22;12094;50.822;4.376;2022-12-07T09:41:34;6.10;99.90
23827;DHT22;12094;50.822;4.376;2022-12-07T09:44:07;6.10;99.90
23827;DHT22;12094;50.822;4.376;2022-12-07T09:46:39;6.30;99.90
23827;DHT22;12094;50.822;4.376;2022-12-07T09:49:12;6.30;99.90
23827;DHT22;12094;50.822;4.376;2022-12-07T09:51:41;6.60;99.90
23827;DHT22;12094;50.822;4.376;2022-12-07T09:54:13;6.60;99.90
23827;DHT22;12094;50.822;4.376;2022-12-07T09:56:41;6.60;99.90
23827;DHT22;12094;50.822;4.376;2022-12-07T09:59:13;6.70;99.90
23827;DHT22;12094;50.822;4.376;2022-12-07T10:01:48;6.50;99.90
23827;DHT22;12094;50.822;4.376;2022-12-07T10:04:20;6.50;99.90
23827;DHT22;12094;50.822;4.376;2022-12-07T10:06:49;6.40;99.90
23827;DHT22;12094;50.822;4.376;2022-12-07T10:09:21;6.40;99.90
23827;DHT22;12094;50.822;4.376;2022-12-07T10:12:09;6.60;99.90
23827;DHT22;12094;50.822;4.376;2022-12-07T10:14:53;6.70;99.90
23827;DHT22;12094;50.822;4.376;2022-12-07T10:17:40;6.90;99.90
23827;DHT22;12094;50.822;4.376;2022-12-07T10:20:23;7.10;99.90
23827;DHT22;12094;50.822;4.376;2022-12-07T10:23:00;7.10;99.90
23827;DHT22;12094;50.822;4.376;2022-12-07T10:25:30;7.20;99.90
23827;DHT22;12094;50.822;4.376;2022-12-07T10:30:30;7.10;99.90
23827;DHT22;12094;50.822;4.376;2022-12-07T10:32:58;7.00;99.90
23827;DHT22;12094;50.822;4.376;2022-12-07T10:35:30;7.00;99.90
23827;DHT22;12094;50.822;4.376;2022-12-07T10:37:59;7.00;99.90
23827;DHT22;12094;50.822;4.376;2022-12-07T10:40:34;7.20;99.90
23827;DHT22;12094;50.822;4.376;2022-12-07T10:46:02;7.40;99.90
23827;DHT22;12094;50.822;4.376;2022-12-07T10:54:16;7.30;99.90
23827;DHT22;12094;50.822;4.376;2022-12-07T10:57:10;7.50;99.90
23827;DHT22;12094;50.822;4.376;2022-12-07T11:00:00;7.60;99.90
23827;DHT22;12094;50.822;4.376;2022-12-07T11:02:50;7.60;99.90
23827;DHT22;12094;50.822;4.376;2022-12-07T11:05:39;7.70;99.90
23827;DHT22;12094;50.822;4.376;2022-12-07T11:11:26;7.80;99.90
23827;DHT22;12094;50.822;4.376;2022-12-07T11:16:56;8.00;99.90
23827;DHT22;12094;50.822;4.376;2022-12-07T11:22:01;8.30;99.90
23827;DHT22;12094;50.822;4.376;2022-12-07T11:24:53;8.20;99.90
23827;DHT22;12094;50.822;4.376;2022-12-07T11:28:04;8.30;99.90
23827;DHT22;12094;50.822;4.376;2022-12-07T11:30:42;8.40;99.90
23827;DHT22;12094;50.822;4.376;2022-12-07T11:33:35;8.30;99.90
23827;DHT22;12094;50.822;4.376;2022-12-07T11:36:40;8.10;99.90
23827;DHT22;12094;50.822;4.376;2022-12-07T11:39:33;7.80;99.90
23827;DHT22;12094;50.822;4.376;2022-12-07T11:42:22;7.70;99.90
23827;DHT22;12094;50.822;4.376;2022-12-07T11:47:47;7.70;99.90
23827;DHT22;12094;50.822;4.376;2022-12-07T11:53:17;8.90;99.90
23827;DHT22;12094;50.822;4.376;2022-12-07T11:55:50;9.30;99.90
23827;DHT22;12094;50.822;4.376;2022-12-07T12:06:39;11.50;99.90
23827;DHT22;12094;50.822;4.376;2022-12-07T12:09:17;11.90;99.90
23827;DHT22;12094;50.822;4.376;2022-12-07T12:18:12;12.80;99.90
23827;DHT22;12094;50.822;4.376;2022-12-07T12:20:51;12.20;99.90
23827;DHT22;12094;50.822;4.376;2022-12-07T12:23:28;11.70;99.90
23827;DHT22;12094;50.822;4.376;2022-12-07T12:26:05;11.30;99.90
23827;DHT22;12094;50.822;4.376;2022-12-07T12:33:52;9.80;99.90
23827;DHT22;12094;50.822;4.376;2022-12-07T12:36:27;9.20;99.90
23827;DHT22;12094;50.822;4.376;2022-12-07T12:51:56;8.60;99.90
23827;DHT22;12094;50.822;4.376;2022-12-07T12:54:32;8.50;99.90
23827;DHT22;12094;50.822;4.376;2022-12-07T12:57:15;8.40;99.90
23827;DHT22;12094;50.822;4.376;2022-12-07T13:13:44;8.10;99.90
23827;DHT22;12094;50.822;4.376;2022-12-07T13:18:41;8.10;99.90
23827;DHT22;12094;50.822;4.376;2022-12-07T13:29:17;7.80;99.90
23827;DHT22;12094;50.822;4.376;2022-12-07T13:31:49;7.90;99.90
23827;DHT22;12094;50.822;4.376;2022-12-07T13:34:32;8.00;99.90
23827;DHT22;12094;50.822;4.376;2022-12-07T13:37:02;8.20;99.90
23827;DHT22;12094;50.822;4.376;2022-12-07T13:39:32;8.40;99.90
23827;DHT22;12094;50.822;4.376;2022-12-07T13:42:11;8.30;99.90
23827;DHT22;12094;50.822;4.376;2022-12-07T13:44:41;8.30;99.90
23827;DHT22;12094;50.822;4.376;2022-12-07T13:47:16;8.40;99.90
23827;DHT22;12094;50.822;4.376;2022-12-07T13:49:56;8.20;99.90
23827;DHT22;12094;50.822;4.376;2022-12-07T13:52:27;8.10;99.90
23827;DHT22;12094;50.822;4.376;2022-12-07T13:55:01;7.90;99.90
23827;DHT22;12094;50.822;4.376;2022-12-07T13:57:36;7.90;99.90
23827;DHT22;12094;50.822;4.376;2022-12-07T14:00:05;7.90;99.90
23827;DHT22;12094;50.822;4.376;2022-12-07T14:02:35;8.00;99.90
23827;DHT22;12094;50.822;4.376;2022-12-07T14:05:22;8.20;99.90
23827;DHT22;12094;50.822;4.376;2022-12-07T14:08:02;8.20;99.90
23827;DHT22;12094;50.822;4.376;2022-12-07T14:10:35;8.20;99.90
23827;DHT22;12094;50.822;4.376;2022-12-07T14:13:22;8.30;99.90
23827;DHT22;12094;50.822;4.376;2022-12-07T14:15:52;8.20;99.90
23827;DHT22;12094;50.822;4.376;2022-12-07T14:18:29;7.90;99.90
23827;DHT22;12094;50.822;4.376;2022-12-07T14:21:18;7.80;99.90
23827;DHT22;12094;50.822;4.376;2022-12-07T14:26:35;7.50;99.90
23827;DHT22;12094;50.822;4.376;2022-12-07T14:32:27;7.60;99.90
23827;DHT22;12094;50.822;4.376;2022-12-07T14:35:12;7.50;99.90
23827;DHT22;12094;50.822;4.376;2022-12-07T14:37:43;7.40;99.90
23827;DHT22;12094;50.822;4.376;2022-12-07T14:40:17;7.30;99.90
23827;DHT22;12094;50.822;4.376;2022-12-07T14:42:46;7.10;99.90
23827;DHT22;12094;50.822;4.376;2022-12-07T14:45:17;6.90;99.90
23827;DHT22;12094;50.822;4.376;2022-12-07T14:47:46;6.80;99.90
23827;DHT22;12094;50.822;4.376;2022-12-07T14:50:49;6.80;99.90
23827;DHT22;12094;50.822;4.376;2022-12-07T14:53:46;6.70;99.90
23827;DHT22;12094;50.822;4.376;2022-12-07T14:56:24;6.50;99.90
23827;DHT22;12094;50.822;4.376;2022-12-07T14:58:52;6.50;99.90
23827;DHT22;12094;50.822;4.376;2022-12-07T15:01:19;6.50;99.90
23827;DHT22;12094;50.822;4.376;2022-12-07T15:03:47;6.50;99.90
23827;DHT22;12094;50.822;4.376;2022-12-07T15:06:19;6.40;99.90
23827;DHT22;12094;50.822;4.376;2022-12-07T15:08:47;6.40;99.90
23827;DHT22;12094;50.822;4.376;2022-12-07T15:11:18;6.50;99.90
23827;DHT22;12094;50.822;4.376;2022-12-07T15:13:45;6.50;99.90
23827;DHT22;12094;50.822;4.376;2022-12-07T15:16:30;6.50;99.90
23827;DHT22;12094;50.822;4.376;2022-12-07T15:19:20;6.50;99.90
23827;DHT22;12094;50.822;4.376;2022-12-07T15:26:03;6.60;99.90
23827;DHT22;12094;50.822;4.376;2022-12-07T15:28:35;6.70;99.90
23827;DHT22;12094;50.822;4.376;2022-12-07T15:31:13;6.80;99.90
23827;DHT22;12094;50.822;4.376;2022-12-07T15:34:07;6.80;99.90
23827;DHT22;12094;50.822;4.376;2022-12-07T15:36:36;6.80;99.90
23827;DHT22;12094;50.822;4.376;2022-12-07T15:39:03;6.90;99.90
23827;DHT22;12094;50.822;4.376;2022-12-07T15:41:41;6.90;99.90
23827;DHT22;12094;50.822;4.376;2022-12-07T15:44:16;7.00;99.90
23827;DHT22;12094;50.822;4.376;2022-12-07T15:47:07;6.90;99.90
23827;DHT22;12094;50.822;4.376;2022-12-07T15:49:38;6.80;99.90
23827;DHT22;12094;50.822;4.376;2022-12-07T15:52:13;6.70;99.90
23827;DHT22;12094;50.822;4.376;2022-12-07T15:54:43;6.60;99.90
23827;DHT22;12094;50.822;4.376;2022-12-07T15:57:16;6.60;99.90
23827;DHT22;12094;50.822;4.376;2022-12-07T15:59:51;6.60;99.90
23827;DHT22;12094;50.822;4.376;2022-12-07T16:02:24;6.60;99.90
23827;DHT22;12094;50.822;4.376;2022-12-07T16:04:52;6.50;99.90
23827;DHT22;12094;50.822;4.376;2022-12-07T16:07:23;6.50;99.90
23827;DHT22;12094;50.822;4.376;2022-12-07T16:09:51;6.60;99.90
23827;DHT22;12094;50.822;4.376;2022-12-07T16:12:46;6.70;99.90
23827;DHT22;12094;50.822;4.376;2022-12-07T16:15:37;6.70;99.90
23827;DHT22;12094;50.822;4.376;2022-12-07T16:21:31;6.60;99.90
23827;DHT22;12094;50.822;4.376;2022-12-07T16:24:07;6.60;99.90
23827;DHT22;12094;50.822;4.376;2022-12-07T16:26:36;6.70;99.90
23827;DHT22;12094;50.822;4.376;2022-12-07T16:29:15;6.70;99.90
23827;DHT22;12094;50.822;4.376;2022-12-07T16:31:43;6.60;99.90
23827;DHT22;12094;50.822;4.376;2022-12-07T16:34:14;6.60;99.90
23827;DHT22;12094;50.822;4.376;2022-12-07T16:36:43;6.60;99.90
23827;DHT22;12094;50.822;4.376;2022-12-07T16:39:30;6.60;99.90
23827;DHT22;12094;50.822;4.376;2022-12-07T16:41:57;6.70;99.90
23827;DHT22;12094;50.822;4.376;2022-12-07T16:44:24;6.60;99.90
23827;DHT22;12094;50.822;4.376;2022-12-07T16:46:52;6.60;99.90
23827;DHT22;12094;50.822;4.376;2022-12-07T16:49:23;6.70;99.90
23827;DHT22;12094;50.822;4.376;2022-12-07T16:51:56;6.60;99.90
23827;DHT22;12094;50.822;4.376;2022-12-07T16:54:48;6.70;99.90
23827;DHT22;12094;50.822;4.376;2022-12-07T16:57:16;6.60;99.90
23827;DHT22;12094;50.822;4.376;2022-12-07T16:59:52;6.60;99.90
23827;DHT22;12094;50.822;4.376;2022-12-07T17:02:49;6.60;99.90
23827;DHT22;12094;50.822;4.376;2022-12-07T17:05:21;6.70;99.90
23827;DHT22;12094;50.822;4.376;2022-12-07T17:07:52;6.70;99.90
23827;DHT22;12094;50.822;4.376;2022-12-07T17:10:24;6.80;99.90
23827;DHT22;12094;50.822;4.376;2022-12-07T17:13:17;6.90;99.90
23827;DHT22;12094;50.822;4.376;2022-12-07T17:16:05;6.90;99.90
23827;DHT22;12094;50.822;4.376;2022-12-07T17:18:35;6.90;99.90
23827;DHT22;12094;50.822;4.376;2022-12-07T17:21:08;6.90;99.90
23827;DHT22;12094;50.822;4.376;2022-12-07T17:23:39;6.80;99.90
23827;DHT22;12094;50.822;4.376;2022-12-07T17:26:12;6.80;99.90
23827;DHT22;12094;50.822;4.376;2022-12-07T17:28:41;6.90;99.90
23827;DHT22;12094;50.822;4.376;2022-12-07T17:31:36;6.80;99.90
23827;DHT22;12094;50.822;4.376;2022-12-07T17:34:10;6.60;99.90
23827;DHT22;12094;50.822;4.376;2022-12-07T17:36:39;6.70;99.90
23827;DHT22;12094;50.822;4.376;2022-12-07T17:39:10;6.70;99.90
23827;DHT22;12094;50.822;4.376;2022-12-07T17:41:39;6.70;99.90
23827;DHT22;12094;50.822;4.376;2022-12-07T17:44:28;6.60;99.90
23827;DHT22;12094;50.822;4.376;2022-12-07T17:46:58;6.70;99.90
23827;DHT22;12094;50.822;4.376;2022-12-07T17:49:27;6.70;99.90
23827;DHT22;12094;50.822;4.376;2022-12-07T17:52:01;6.90;99.90
23827;DHT22;12094;50.822;4.376;2022-12-07T17:54:50;6.80;99.90
23827;DHT22;12094;50.822;4.376;2022-12-07T17:57:22;6.70;99.90
23827;DHT22;12094;50.822;4.376;2022-12-07T17:59:51;6.60;99.90
23827;DHT22;12094;50.822;4.376;2022-12-07T18:02:20;6.60;99.90
23827;DHT22;12094;50.822;4.376;2022-12-07T18:04:52;6.50;99.90
23827;DHT22;12094;50.822;4.376;2022-12-07T18:07:19;6.40;99.90
23827;DHT22;12094;50.822;4.376;2022-12-07T18:09:49;6.60;99.90
23827;DHT22;12094;50.822;4.376;2022-12-07T18:12:17;6.60;99.90
23827;DHT22;12094;50.822;4.376;2022-12-07T18:14:45;6.50;99.90
23827;DHT22;12094;50.822;4.376;2022-12-07T18:17:16;6.50;99.90
23827;DHT22;12094;50.822;4.376;2022-12-07T18:19:46;6.50;99.90
23827;DHT22;12094;50.822;4.376;2022-12-07T18:22:17;6.60;99.90
23827;DHT22;12094;50.822;4.376;2022-12-07T18:25:11;6.70;99.90
23827;DHT22;12094;50.822;4.376;2022-12-07T18:27:49;6.70;99.90
23827;DHT22;12094;50.822;4.376;2022-12-07T18:30:42;6.70;99.90
23827;DHT22;12094;50.822;4.376;2022-12-07T18:33:40;6.80;99.90